Observations de surface / UK / EGHH

Québec | Canada | États-Unis | France | UK | Europe | Ailleurs

Affichage: Infos & localisation pour EGHH | Aide pour décoder les METARs

EGHH BOURNEMOUTH AIRPORT -- UK
Raw surface observations for station EGHH
EGHH 211720Z 08005KT 9999 BKN029 02/M02 Q1025=
EGHH 211650Z 08007KT 9999 BKN029 02/M02 Q1025=
EGHH 211620Z 09007KT 9999 BKN029 03/M03 Q1025=
EGHH 211550Z 09006KT 9999 BKN029 03/M02 Q1025=
EGHH 211520Z 09007KT 9999 BKN028 03/M03 Q1025=
EGHH 211450Z 09008KT 9999 BKN030 03/M03 Q1025=
EGHH 211420Z 09008KT 9999 BKN027 03/M03 Q1025=
EGHH 211350Z 09006KT 9999 BKN028 03/M03 Q1025=
EGHH 211320Z 09007KT 9999 8000S BKN033 03/M02 Q1025=
EGHH 211250Z 09008KT 9999 6000S BKN034 03/M02 Q1025=
EGHH 211220Z 08008KT 9999 6000S SCT034 02/M02 Q1026=
EGHH 211150Z 08007KT 9999 SCT033 03/M01 Q1026=
EGHH 211120Z 07007KT 9999 FEW031 02/M02 Q1026=
EGHH 211050Z 07008KT 9999 FEW028 02/M02 Q1027=
EGHH 211020Z 06006KT 9999 FEW028 01/M02 Q1027=
EGHH 210950Z 04003KT 9999 FEW028 M01/M02 Q1027=
EGHH 210920Z 02005KT 9999 FEW028 M03/M04 Q1027=
EGHH 210850Z VRB01KT 9999 FEW028 M06/M07 Q1027=
EGHH 210820Z VRB02KT CAVOK M07/M08 Q1027=
EGHH 210750Z 01003KT CAVOK M06/M07 Q1027=
EGHH 210720Z 33002KT CAVOK M07/M08 Q1027=
EGHH 210650Z 31002KT CAVOK M07/M08 Q1027=
EGHH 210620Z 33003KT 9999 NSC M06/M07 Q1027=
EGHH 202350Z 05007KT 9999 BKN025 M03/M05 Q1029=
EGHH 202320Z 05006KT 9999 SCT024 M02/M05 Q1029=
EGHH 202250Z 06003KT CAVOK M01/M04 Q1029=
EGHH 202220Z 07007KT CAVOK M01/M05 Q1029=
EGHH 202150Z 05003KT CAVOK M01/M05 Q1029=
EGHH 202120Z 05006KT CAVOK M02/M05 Q1030=
EGHH 202050Z 04003KT CAVOK M01/M04 Q1030=
EGHH 202020Z 06002KT CAVOK M02/M05 Q1030=
EGHH 201950Z 01001KT CAVOK M02/M05 Q1030=
EGHH 201920Z 04003KT CAVOK 00/M03 Q1030=
EGHH 201850Z 07004KT CAVOK 01/M03 Q1030=
EGHH 201820Z 06004KT CAVOK 01/M03 Q1029=
EGHH 201750Z 04006KT CAVOK 01/M03 Q1029=
EGHH 201720Z 05006KT CAVOK 02/M03 Q1030=